Time;durP1;ratioP1;P1;durP2;ratioP2;P2;SDS_P1;SDS_P2;PMS_P1;PMS_P2;Temp;Humidity;BMP_temperature;BMP_pressure;BME280_temperature;BME280_humidity;BME280_pressure;Samples;Min_cycle;Max_cycle;Signal;HPM_P1;HPM_P2
2022/05/27 00:00:20;;;;;;;5.35;2.30;;;;;;;19.07;50.92;101902.66;5011956;28;123964;-60
2022/05/27 00:02:50;;;;;;;3.50;2.10;;;;;;;19.08;51.05;101901.69;5011421;28;124357;-60
2022/05/27 00:05:18;;;;;;;5.07;2.17;;;;;;;19.11;50.99;101892.56;5018894;28;108926;-60
2022/05/27 00:07:45;;;;;;;4.93;2.00;;;;;;;19.09;51.04;101895.34;5016079;28;109281;-60
2022/05/27 00:10:14;;;;;;;7.30;2.10;;;;;;;19.10;50.97;101891.72;5011211;28;124398;-60
2022/05/27 00:12:41;;;;;;;5.00;2.17;;;;;;;19.09;50.71;101889.13;5015191;28;124230;-60
2022/05/27 00:15:09;;;;;;;6.95;2.20;;;;;;;19.09;51.08;101889.97;5017555;28;109486;-60
2022/05/27 00:17:36;;;;;;;3.55;2.20;;;;;;;19.09;51.28;101883.75;5012924;28;109041;-60
2022/05/27 00:20:04;;;;;;;8.30;2.10;;;;;;;19.08;51.28;101888.28;5017865;28;124011;-60
2022/05/27 00:22:31;;;;;;;5.30;2.28;;;;;;;19.09;51.31;101883.75;5017786;28;123895;-60
2022/05/27 00:24:58;;;;;;;5.55;2.15;;;;;;;19.07;51.25;101883.84;5000371;28;108223;-60
2022/05/27 00:27:25;;;;;;;4.15;2.00;;;;;;;19.07;51.35;101886.53;5013172;28;109362;-60
2022/05/27 00:29:52;;;;;;;4.75;2.20;;;;;;;19.05;51.21;101877.72;5011936;28;124745;-60
2022/05/27 00:32:29;;;;;;;6.32;2.13;;;;;;;19.03;51.16;101885.88;5017579;28;123962;-60
2022/05/27 00:34:56;;;;;;;9.75;2.00;;;;;;;19.02;51.38;101877.91;5019084;28;109425;-60
2022/05/27 00:37:24;;;;;;;4.55;2.20;;;;;;;19.00;51.45;101879.81;5014267;28;110171;-60
2022/05/27 00:39:51;;;;;;;5.30;2.30;;;;;;;19.00;51.38;101869.94;5016386;28;124287;-60
2022/05/27 00:42:18;;;;;;;5.28;2.05;;;;;;;18.99;51.50;101883.50;5017359;28;124682;-60
2022/05/27 00:44:45;;;;;;;5.15;1.85;;;;;;;18.99;51.58;101878.13;5012257;28;109612;-60
2022/05/27 00:47:17;;;;;;;3.85;2.00;;;;;;;18.98;51.50;101871.00;5012360;28;108940;-60
2022/05/27 00:49:48;;;;;;;5.95;2.20;;;;;;;18.98;51.54;101881.75;4996165;28;124767;-60
2022/05/27 00:52:19;;;;;;;4.85;2.17;;;;;;;18.97;51.68;101869.31;5014716;28;123749;-61
2022/05/27 00:54:46;;;;;;;5.45;2.42;;;;;;;18.97;51.73;101863.94;5013662;28;109131;-60
2022/05/27 00:57:28;;;;;;;5.75;2.40;;;;;;;18.97;51.91;101867.47;5012219;28;109879;-60
2022/05/27 01:00:04;;;;;;;5.97;2.25;;;;;;;18.98;52.01;101871.00;5014089;28;123981;-61
2022/05/27 01:02:34;;;;;;;4.25;2.15;;;;;;;18.97;52.13;101869.31;5001845;28;122841;-61
2022/05/27 01:05:03;;;;;;;4.80;2.53;;;;;;;18.95;52.04;101865.81;5014820;28;109070;-60
2022/05/27 01:07:30;;;;;;;7.85;2.70;;;;;;;18.94;52.10;101869.50;5012012;28;108877;-60
2022/05/27 01:09:59;;;;;;;5.90;2.40;;;;;;;18.92;52.36;101866.03;5014049;28;124791;-60
2022/05/27 01:12:42;;;;;;;5.40;2.42;;;;;;;18.89;52.57;101871.59;5015869;28;123951;-60
2022/05/27 01:15:22;;;;;;;7.65;2.60;;;;;;;18.84;52.56;101862.03;5011664;28;109358;-58
2022/05/27 01:18:11;;;;;;;7.30;3.40;;;;;;;18.76;52.74;101867.00;5016254;28;108793;-58
2022/05/27 01:20:50;;;;;;;5.13;2.60;;;;;;;18.71;52.95;101869.09;5013797;28;124072;-58
2022/05/27 01:23:23;;;;;;;7.88;3.10;;;;;;;18.65;53.36;101861.44;5012487;28;123669;-58
2022/05/27 01:26:17;;;;;;;7.35;2.88;;;;;;;18.58;53.40;101860.94;5013435;28;110050;-58
2022/05/27 01:28:51;;;;;;;5.20;2.97;;;;;;;18.55;53.57;101857.59;5012135;28;110694;-58
2022/05/27 01:31:18;;;;;;;6.75;2.78;;;;;;;18.51;53.67;101861.44;5012993;28;124208;-58
2022/05/27 01:33:55;;;;;;;5.68;3.00;;;;;;;18.46;53.81;101865.25;5014397;28;123988;-59
2022/05/27 01:36:34;;;;;;;9.75;3.08;;;;;;;18.45;54.03;101868.03;5016431;27;109123;-59
2022/05/27 01:39:07;;;;;;;5.53;2.95;;;;;;;18.42;54.15;101863.75;5011743;28;109036;-59
2022/05/27 01:41:36;;;;;;;5.75;3.38;;;;;;;18.39;54.35;101863.91;5011734;28;123883;-58
2022/05/27 01:44:43;;;;;;;8.35;3.40;;;;;;;18.34;54.46;101867.84;5011092;28;123506;-58
2022/05/27 01:47:19;;;;;;;7.50;3.50;;;;;;;18.25;54.78;101866.56;5014269;28;109483;-59
2022/05/27 01:50:03;;;;;;;7.15;3.70;;;;;;;18.20;55.00;101863.31;5010727;28;109123;-59
2022/05/27 01:52:36;;;;;;;6.65;3.58;;;;;;;18.18;55.07;101859.88;5015503;28;123723;-59
2022/05/27 01:55:27;;;;;;;9.10;4.05;;;;;;;18.14;55.11;101869.03;5014383;28;123925;-59
2022/05/27 01:58:00;;;;;;;7.80;3.80;;;;;;;18.12;55.47;101870.97;5010949;28;108882;-59
2022/05/27 02:00:29;;;;;;;9.05;3.85;;;;;;;18.09;55.82;101877.38;5010723;28;108890;-59
2022/05/27 02:03:04;;;;;;;10.13;3.92;;;;;;;18.07;55.83;101890.88;5010715;28;124150;-59
2022/05/27 02:05:36;;;;;;;;;;;;;;;18.02;54.67;101919.75;5014839;28;124507;-59
2022/05/27 02:08:08;;;;;;;7.60;3.70;;;;;;;17.98;55.35;101912.84;5010245;28;109294;-59
2022/05/27 02:10:46;;;;;;;7.82;3.53;;;;;;;17.93;55.68;101909.56;5011768;28;109108;-59
2022/05/27 02:13:35;;;;;;;5.00;2.80;;;;;;;17.88;55.89;101907.19;5015149;28;124830;-59
2022/05/27 02:16:04;;;;;;;4.30;2.83;;;;;;;17.84;55.99;101907.44;5012813;28;123669;-60
2022/05/27 02:19:24;;;;;;;5.78;2.28;;;;;;;17.78;55.77;101911.34;5013446;28;110005;-59
2022/05/27 02:21:56;;;;;;;5.18;2.00;;;;;;;17.74;56.07;101908.91;4971837;28;109797;-59
2022/05/27 02:24:36;;;;;;;5.03;2.08;;;;;;;17.70;56.53;101906.41;4970644;28;123847;-60
2022/05/27 02:27:13;;;;;;;4.25;1.98;;;;;;;17.68;56.45;101897.59;5001628;28;123624;-59
2022/05/27 02:29:44;;;;;;;6.57;2.10;;;;;;;17.67;56.47;101903.91;5014054;28;108937;-60
2022/05/27 02:32:17;;;;;;;4.38;2.00;;;;;;;17.66;56.60;101895.97;4998468;28;107850;-60
2022/05/27 02:35:09;;;;;;;3.92;2.03;;;;;;;17.66;56.85;101895.97;5010081;28;125493;-60
2022/05/27 02:37:36;;;;;;;4.43;2.20;;;;;;;17.65;56.81;101905.81;5014418;28;124426;-59
2022/05/27 02:40:12;;;;;;;3.60;2.30;;;;;;;17.65;57.05;101899.59;5008878;28;109241;-59
2022/05/27 02:42:51;;;;;;;5.57;2.60;;;;;;;17.66;57.10;101902.19;5015072;28;109163;-59
2022/05/27 02:45:24;;;;;;;3.75;2.65;;;;;;;17.67;57.15;101892.34;5012128;28;124703;-59
2022/05/27 02:48:22;;;;;;;4.53;3.00;;;;;;;17.65;57.09;101889.75;5000472;28;122714;-60
2022/05/27 02:51:05;;;;;;;4.93;2.60;;;;;;;17.66;57.13;101885.25;5009534;28;110053;-59
2022/05/27 02:54:03;;;;;;;3.83;2.25;;;;;;;17.66;57.12;101882.56;5018703;28;109155;-59
2022/05/27 02:56:49;;;;;;;4.40;2.30;;;;;;;17.64;57.25;101871.94;5008805;28;124059;-59
2022/05/27 02:59:18;;;;;;;4.35;2.10;;;;;;;17.66;57.30;101870.03;5009661;28;123895;-59
2022/05/27 03:01:46;;;;;;;5.90;2.25;;;;;;;17.65;57.36;101875.47;5009196;28;109197;-60
2022/05/27 03:04:16;;;;;;;4.45;2.20;;;;;;;17.64;57.48;101879.97;5007893;28;109404;-59
2022/05/27 03:06:51;;;;;;;3.70;1.88;;;;;;;17.60;57.43;101878.44;5010875;28;125216;-59
2022/05/27 03:09:27;;;;;;;4.95;2.13;;;;;;;17.58;57.45;101866.94;5009921;28;123928;-59
2022/05/27 03:12:09;;;;;;;3.90;2.30;;;;;;;17.56;57.29;101863.50;5011214;28;109255;-59
2022/05/27 03:15:04;;;;;;;4.35;2.10;;;;;;;17.52;57.43;101872.66;5008000;28;109934;-60
2022/05/27 03:18:10;;;;;;;5.50;1.98;;;;;;;17.47;57.36;101877.41;5007359;28;124319;-59
2022/05/27 03:20:57;;;;;;;4.93;2.37;;;;;;;17.44;57.46;101869.53;5010531;28;123594;-59
2022/05/27 03:23:45;;;;;;;4.90;2.30;;;;;;;17.42;57.75;101874.13;5014030;28;109119;-60
2022/05/27 03:26:25;;;;;;;4.22;2.28;;;;;;;17.40;57.55;101873.34;5016158;28;109425;-59
2022/05/27 03:29:10;;;;;;;4.30;2.05;;;;;;;17.38;57.89;101875.25;5018275;28;124767;-59
2022/05/27 03:31:47;;;;;;;4.88;2.35;;;;;;;17.37;57.96;101869.06;5012865;28;123880;-59
2022/05/27 03:34:33;;;;;;;3.53;2.35;;;;;;;17.36;57.81;101861.09;5013410;28;109646;-59
2022/05/27 03:37:08;;;;;;;4.72;2.38;;;;;;;17.36;58.09;101872.66;5009185;28;109506;-59
2022/05/27 03:39:49;;;;;;;4.18;2.17;;;;;;;17.33;58.02;101875.53;5010116;28;125013;-59
2022/05/27 03:42:19;;;;;;;4.45;2.00;;;;;;;17.34;58.16;101873.72;5013694;28;123889;-60
2022/05/27 03:45:05;;;;;;;2.88;2.15;;;;;;;17.31;58.04;101864.91;5012259;28;110113;-59
2022/05/27 03:47:33;;;;;;;;;;;;;;;17.25;57.47;101859.91;5015009;28;109081;-59
2022/05/27 03:50:00;;;;;;;5.05;2.03;;;;;;;17.25;57.69;101859.91;5011420;28;124369;-60
2022/05/27 03:52:33;;;;;;;5.60;2.15;;;;;;;17.25;58.09;101854.56;5015566;28;123812;-59
2022/05/27 03:55:00;;;;;;;4.18;1.98;;;;;;;17.26;57.98;101855.41;5013944;28;107878;-59
2022/05/27 03:57:27;;;;;;;4.57;2.17;;;;;;;17.25;58.16;101859.03;5011272;28;108580;-59
2022/05/27 03:59:54;;;;;;;3.90;2.17;;;;;;;17.26;58.39;101861.63;5012253;28;124189;-59
2022/05/27 04:02:21;;;;;;;5.15;2.13;;;;;;;17.27;58.29;101852.66;5014610;28;124265;-59
2022/05/27 04:04:48;;;;;;;6.80;2.80;;;;;;;17.30;58.53;101856.97;5011915;28;110587;-59
2022/05/27 04:07:16;;;;;;;5.75;2.50;;;;;;;17.32;58.42;101863.94;5013506;28;109659;-59
2022/05/27 04:09:43;;;;;;;7.00;2.40;;;;;;;17.34;58.63;101868.34;5013907;28;124632;-59
2022/05/27 04:12:12;;;;;;;4.05;2.30;;;;;;;17.35;58.71;101875.41;5014031;28;124138;-60
2022/05/27 04:14:40;;;;;;;5.55;2.50;;;;;;;17.38;58.78;101872.59;5013457;28;109233;-60
2022/05/27 04:19:53;;;;;;;5.68;2.75;;;;;;;17.41;58.73;101875.09;5013030;28;124153;-60
2022/05/27 04:22:20;;;;;;;5.05;2.53;;;;;;;17.44;58.89;101886.50;5015953;28;123730;-59
2022/05/27 04:24:47;;;;;;;6.97;2.80;;;;;;;17.47;58.74;101890.81;5013241;28;109231;-59
2022/05/27 04:27:17;;;;;;;5.35;2.72;;;;;;;17.50;58.98;101885.28;5015937;28;108872;-59
2022/05/27 04:29:48;;;;;;;7.38;3.00;;;;;;;17.51;58.80;101881.63;5011744;28;124357;-59
2022/05/27 04:32:16;;;;;;;5.70;2.35;;;;;;;17.53;58.96;101885.09;5015123;28;123970;-59
2022/05/27 04:34:43;;;;;;;5.82;2.80;;;;;;;17.54;58.94;101886.81;5013500;28;109509;-59
2022/05/27 04:37:11;;;;;;;4.63;2.42;;;;;;;17.55;59.04;101872.47;5014752;28;108049;-59
2022/05/27 04:39:38;;;;;;;5.68;2.50;;;;;;;17.57;58.90;101875.91;5014778;28;123816;-59
2022/05/27 04:42:06;;;;;;;5.03;2.88;;;;;;;17.59;59.19;101884.72;5013383;28;124668;-59
2022/05/27 04:44:34;;;;;;;6.00;2.80;;;;;;;17.62;59.10;101887.22;5012538;28;109267;-60
2022/05/27 04:47:03;;;;;;;4.90;2.80;;;;;;;17.66;59.21;101888.78;5014666;28;109112;-60
2022/05/27 04:52:23;;;;;;;5.43;2.65;;;;;;;17.75;59.41;101878.50;5014807;28;124520;-60
2022/05/27 04:54:52;;;;;;;5.47;2.70;;;;;;;17.79;59.34;101880.03;5012885;28;110047;-59
2022/05/27 04:57:23;;;;;;;5.35;2.60;;;;;;;17.86;59.35;101884.13;5012668;28;109961;-59
2022/05/27 04:59:51;;;;;;;6.28;2.80;;;;;;;17.92;59.32;101880.22;5011369;28;124431;-59
2022/05/27 05:02:21;;;;;;;7.43;3.10;;;;;;;17.97;59.30;101884.34;5014623;28;123705;-59
2022/05/27 05:04:48;;;;;;;8.48;2.75;;;;;;;18.00;59.28;101884.16;5012639;28;109101;-59
2022/05/27 05:07:20;;;;;;;5.82;2.80;;;;;;;18.04;59.22;101890.19;5013161;28;109509;-59
2022/05/27 05:09:47;;;;;;;7.45;3.25;;;;;;;18.07;59.15;101890.88;5012699;28;123817;-59
2022/05/27 05:12:14;;;;;;;4.53;2.67;;;;;;;18.12;59.13;101892.41;5013654;28;123172;-59
2022/05/27 05:14:41;;;;;;;5.15;3.28;;;;;;;18.16;59.20;101891.25;5014776;28;109673;-59
2022/05/27 05:17:09;;;;;;;6.38;3.22;;;;;;;18.20;59.33;101890.16;5013281;28;109330;-60
2022/05/27 05:19:36;;;;;;;8.00;3.72;;;;;;;18.23;59.18;101888.16;5011016;28;124217;-59
2022/05/27 05:22:03;;;;;;;7.75;3.65;;;;;;;18.25;59.29;101899.63;5012760;28;123151;-60
2022/05/27 05:24:31;;;;;;;7.88;3.72;;;;;;;18.28;59.21;101898.56;5012341;28;109111;-59
2022/05/27 05:26:59;;;;;;;10.23;3.67;;;;;;;18.30;59.17;101902.03;5012328;28;109056;-59
2022/05/27 05:29:26;;;;;;;8.13;3.40;;;;;;;18.32;59.08;101900.09;5013458;28;123341;-59
2022/05/27 05:31:53;;;;;;;10.80;3.92;;;;;;;18.35;59.16;101904.44;5013252;28;124165;-59
2022/05/27 05:34:20;;;;;;;7.63;3.40;;;;;;;18.38;59.30;101910.47;5015237;28;109516;-59
2022/05/27 05:36:47;;;;;;;9.38;3.65;;;;;;;18.40;59.27;101908.56;5014234;28;107491;-59
2022/05/27 05:39:15;;;;;;;8.02;3.85;;;;;;;18.43;59.53;101908.38;5011857;28;124646;-59
2022/05/27 05:41:42;;;;;;;10.18;3.95;;;;;;;18.46;59.30;101918.91;5011567;28;123554;-59
2022/05/27 05:44:10;;;;;;;6.55;3.42;;;;;;;18.49;59.29;101913.34;5010051;28;110129;-59
2022/05/27 05:46:38;;;;;;;9.75;4.50;;;;;;;18.53;59.48;101919.38;5014542;28;109891;-59
2022/05/27 05:49:06;;;;;;;7.15;3.72;;;;;;;18.55;59.37;101919.28;5011217;28;124475;-59
2022/05/27 05:51:33;;;;;;;7.65;3.97;;;;;;;18.58;59.28;101927.16;5011954;28;123553;-59
2022/05/27 05:54:01;;;;;;;8.10;3.90;;;;;;;18.61;59.04;101918.91;5013468;28;109254;-59
2022/05/27 05:56:33;;;;;;;9.60;3.95;;;;;;;18.63;59.41;101919.72;5014153;28;109197;-59
2022/05/27 05:59:01;;;;;;;9.85;3.65;;;;;;;18.66;59.34;101922.19;5014163;28;124356;-59
2022/05/27 06:01:28;;;;;;;9.90;3.80;;;;;;;18.73;59.54;101923.53;5014730;28;125751;-58
2022/05/27 06:03:56;;;;;;;7.65;3.78;;;;;;;18.80;59.38;101927.59;5011119;28;108972;-59
2022/05/27 06:06:24;;;;;;;9.55;4.15;;;;;;;18.88;59.66;101920.91;5012954;28;108922;-59
2022/05/27 06:08:51;;;;;;;13.93;3.80;;;;;;;18.94;59.46;101928.56;5012688;28;124303;-59
2022/05/27 06:11:18;;;;;;;9.18;3.65;;;;;;;18.98;58.97;101922.03;5012789;28;124153;-59
2022/05/27 06:13:46;;;;;;;9.82;3.42;;;;;;;19.01;59.05;101932.56;5011551;28;109500;-59
2022/05/27 06:16:13;;;;;;;7.00;3.50;;;;;;;19.05;58.95;101936.78;5014602;28;109151;-58
2022/05/27 06:18:41;;;;;;;8.38;3.15;;;;;;;19.07;58.92;101934.88;5022430;28;124566;-59
2022/05/27 06:21:08;;;;;;;10.90;3.38;;;;;;;19.09;58.65;101935.63;5031424;28;124169;-59
2022/05/27 06:23:36;;;;;;;8.45;3.60;;;;;;;19.13;58.52;101942.53;5031358;28;109205;-59
2022/05/27 06:26:07;;;;;;;6.85;3.15;;;;;;;19.15;58.63;101943.28;5034518;28;109433;-59
2022/05/27 06:34:26;;;;;;;6.30;2.85;;;;;;;19.20;57.98;101946.56;5010943;28;110693;-58
2022/05/27 06:37:02;;;;;;;8.65;2.60;;;;;;;19.24;57.93;101953.44;5005809;28;109967;-58
2022/05/27 06:39:32;;;;;;;6.13;2.33;;;;;;;19.29;57.89;101952.28;5008215;28;123031;-58
2022/05/27 06:42:05;;;;;;;5.05;2.30;;;;;;;19.35;57.61;101954.59;5012266;28;123785;-58
2022/05/27 06:44:55;;;;;;;7.15;2.05;;;;;;;19.41;57.42;101948.81;5014163;28;110127;-58
2022/05/27 06:47:23;;;;;;;9.63;2.60;;;;;;;19.44;56.88;101937.88;5015216;28;108517;-58
2022/05/27 06:49:50;;;;;;;7.85;2.05;;;;;;;19.49;57.10;101941.09;5004724;28;124093;-58
2022/05/27 06:52:20;;;;;;;6.88;2.33;;;;;;;19.55;56.73;101946.09;5011396;28;123793;-59
2022/05/27 06:54:47;;;;;;;4.88;1.92;;;;;;;19.61;56.47;101943.00;5014346;28;108719;-58
2022/05/27 06:57:15;;;;;;;8.85;2.47;;;;;;;19.69;56.30;101945.19;5003832;28;108073;-58
2022/05/27 06:59:42;;;;;;;9.98;2.45;;;;;;;19.78;56.33;101949.13;5012306;28;124924;-59
2022/05/27 07:02:09;;;;;;;6.63;2.22;;;;;;;19.88;56.28;101952.94;5018164;28;124057;-59
2022/05/27 07:04:36;;;;;;;6.68;2.00;;;;;;;20.00;55.87;101962.88;5020519;28;109552;-58
2022/05/27 07:07:05;;;;;;;6.40;2.22;;;;;;;20.10;55.72;101962.22;5016499;28;109056;-58
2022/05/27 07:09:35;;;;;;;4.60;1.95;;;;;;;20.19;54.95;101956.22;5020788;28;124956;-59
2022/05/27 07:12:06;;;;;;;6.57;1.70;;;;;;;20.27;55.04;101956.59;5012772;28;123846;-58
2022/05/27 07:14:34;;;;;;;6.63;1.58;;;;;;;20.35;54.78;101964.97;5013460;28;109434;-58
2022/05/27 07:17:01;;;;;;;7.38;1.67;;;;;;;20.46;54.62;101958.88;5015038;28;109456;-59
2022/05/27 07:19:38;;;;;;;5.57;1.67;;;;;;;20.52;53.74;101962.97;5013428;28;124698;-59
2022/05/27 07:22:07;;;;;;;6.22;1.60;;;;;;;20.55;53.80;101957.34;5017751;28;123974;-59
2022/05/27 07:24:35;;;;;;;5.32;1.60;;;;;;;20.60;52.97;101955.25;5013613;28;111244;-59
2022/05/27 07:27:03;;;;;;;6.75;1.75;;;;;;;20.63;52.68;101965.81;5014731;28;110109;-59
2022/05/27 07:29:30;;;;;;;7.63;1.67;;;;;;;20.62;52.42;101964.06;5013416;28;124799;-58
2022/05/27 07:31:57;;;;;;;6.53;1.40;;;;;;;20.60;51.92;101966.00;5013610;28;124398;-58
2022/05/27 07:34:25;;;;;;;9.20;1.98;;;;;;;20.55;51.75;101970.81;5013990;28;109105;-59
2022/05/27 07:36:53;;;;;;;3.40;1.30;;;;;;;20.55;51.46;101973.50;5016806;28;108826;-60
2022/05/27 07:39:20;;;;;;;5.82;1.63;;;;;;;20.57;51.37;101976.97;5013278;28;124013;-60
2022/05/27 07:41:47;;;;;;;6.55;1.40;;;;;;;20.61;50.86;101973.13;5014648;28;124207;-60
2022/05/27 07:44:15;;;;;;;5.03;1.55;;;;;;;20.60;50.40;101974.09;5016097;28;109243;-60
2022/05/27 07:46:43;;;;;;;5.05;1.27;;;;;;;20.54;49.83;101977.19;5015756;28;109039;-60
2022/05/27 07:49:10;;;;;;;4.00;1.25;;;;;;;20.46;49.65;101984.94;5012671;28;124610;-60
2022/05/27 07:51:58;;;;;;;8.65;1.30;;;;;;;20.38;49.66;101986.31;5014431;28;123887;-60
2022/05/27 07:54:25;;;;;;;5.88;1.20;;;;;;;20.32;49.34;101984.00;5014889;28;109460;-60
2022/05/27 07:56:52;;;;;;;7.20;2.10;;;;;;;20.27;49.19;101991.56;5015254;28;109160;-60
2022/05/27 07:59:19;;;;;;;6.40;1.50;;;;;;;20.21;48.86;101992.84;5012763;28;124433;-60
2022/05/27 08:01:46;;;;;;;7.25;1.65;;;;;;;20.20;49.13;101985.72;5012842;28;124010;-60
2022/05/27 08:04:14;;;;;;;5.72;1.30;;;;;;;20.22;49.17;101982.94;5009222;28;109825;-60
2022/05/27 08:06:42;;;;;;;3.83;1.40;;;;;;;20.29;49.23;101995.00;5014146;28;108799;-60
2022/05/27 08:09:13;;;;;;;5.88;1.48;;;;;;;20.32;48.67;101999.31;5013111;28;124093;-60
2022/05/27 08:11:40;;;;;;;4.63;1.30;;;;;;;20.29;48.14;102000.38;5017974;27;122955;-60
2022/05/27 08:14:09;;;;;;;4.93;1.40;;;;;;;20.24;48.11;101999.81;5014301;28;110507;-64
2022/05/27 08:16:37;;;;;;;6.75;1.60;;;;;;;20.22;47.91;101996.38;5014183;28;110186;-60
2022/05/27 08:19:05;;;;;;;5.18;1.20;;;;;;;20.22;48.12;102001.75;5012180;28;123995;-60
2022/05/27 08:21:36;;;;;;;6.50;1.73;;;;;;;20.26;47.85;101999.72;5013431;28;125237;-60
2022/05/27 08:24:07;;;;;;;7.53;1.73;;;;;;;20.33;48.63;101980.38;5014778;28;108203;-60
2022/05/27 08:26:35;;;;;;;6.03;1.63;;;;;;;20.48;48.28;101999.13;5012541;28;109276;-60
2022/05/27 08:29:03;;;;;;;8.35;1.67;;;;;;;20.58;47.95;101994.84;5011182;28;124592;-60
2022/05/27 08:31:30;;;;;;;5.47;1.70;;;;;;;20.66;47.94;101994.31;5014275;28;123753;-60
2022/05/27 08:39:28;;;;;;;6.30;1.60;;;;;;;20.94;47.89;102001.34;5012116;28;124457;-60
2022/05/27 08:42:17;;;;;;;6.63;1.50;;;;;;;20.99;47.62;102005.44;5012687;28;123898;-60
2022/05/27 08:44:59;;;;;;;7.38;1.77;;;;;;;21.05;47.92;102004.13;5014474;28;109504;-61
2022/05/27 08:47:37;;;;;;;7.22;1.55;;;;;;;21.13;47.66;102012.53;5014076;28;108903;-60
2022/05/27 08:50:12;;;;;;;6.82;1.67;;;;;;;21.15;47.01;102009.72;5012980;28;123002;-60
2022/05/27 08:52:50;;;;;;;3.95;1.45;;;;;;;21.06;46.57;102011.25;5013459;28;124759;-60
2022/05/27 09:01:11;;;;;;;5.72;2.08;;;;;;;20.70;46.03;102020.94;5009083;28;124612;-60
2022/05/27 09:03:44;;;;;;;5.22;1.42;;;;;;;20.69;45.95;102008.44;5009344;28;123954;-59
2022/05/27 09:06:13;;;;;;;8.15;1.60;;;;;;;20.75;46.39;102007.16;5009979;28;115930;-60
2022/05/27 09:08:40;;;;;;;7.95;1.90;;;;;;;20.82;46.47;101997.69;5009714;28;114796;-59
2022/05/27 09:11:34;;;;;;;4.43;1.60;;;;;;;20.93;46.56;102015.78;4996388;28;123145;-60
2022/05/27 09:14:07;;;;;;;6.60;1.58;;;;;;;21.00;46.20;102011.66;5009508;28;123807;-60
2022/05/27 09:16:47;;;;;;;4.47;1.60;;;;;;;21.04;45.98;102015.00;5011728;28;115632;-60
2022/05/27 09:19:50;;;;;;;5.35;1.67;;;;;;;21.07;46.16;102023.75;5005316;28;112685;-60
2022/05/27 09:22:39;;;;;;;4.30;1.70;;;;;;;21.11;45.80;102019.84;4991612;28;124636;-59
2022/05/27 09:25:18;;;;;;;4.85;1.45;;;;;;;21.18;45.71;102015.75;4989087;28;124173;-60
2022/05/27 09:27:55;;;;;;;6.60;1.60;;;;;;;21.28;45.80;102025.88;4989971;28;114646;-60
2022/05/27 09:30:22;;;;;;;4.47;1.55;;;;;;;21.42;45.68;102020.38;4989947;28;113955;-60
2022/05/27 09:32:58;;;;;;;6.53;1.90;;;;;;;21.54;45.08;102024.88;4990523;28;123919;-60
2022/05/27 09:35:48;;;;;;;7.85;1.60;;;;;;;21.51;44.45;102022.44;4992448;28;123658;-60
2022/05/27 09:38:22;;;;;;;5.18;1.85;;;;;;;21.48;44.70;102022.66;4992682;28;114332;-60
2022/05/27 09:40:55;;;;;;;4.82;1.80;;;;;;;21.52;44.84;102023.28;5010393;28;113757;-59
2022/05/27 09:43:41;;;;;;;8.63;2.15;;;;;;;21.57;44.74;102030.06;5007995;28;123891;-60
2022/05/27 09:46:17;;;;;;;7.65;1.58;;;;;;;21.62;44.27;102034.25;5010645;28;122781;-60
2022/05/27 09:48:44;;;;;;;5.90;1.77;;;;;;;21.65;44.08;102028.66;5008208;28;114597;-60
2022/05/27 09:51:15;;;;;;;6.00;1.80;;;;;;;21.66;43.97;102024.97;5006631;28;113904;-60
2022/05/27 09:53:51;;;;;;;5.22;1.58;;;;;;;21.66;43.63;102035.75;5010015;28;124118;-60
2022/05/27 09:56:35;;;;;;;4.38;1.50;;;;;;;21.65;43.67;102028.66;4995902;28;123270;-60
2022/05/27 09:59:22;;;;;;;6.13;1.50;;;;;;;21.64;43.55;102033.16;5004653;28;115037;-60
2022/05/27 10:01:50;;;;;;;7.40;1.77;;;;;;;21.67;43.73;102029.41;5007212;28;114935;-60
2022/05/27 10:04:18;;;;;;;4.90;1.55;;;;;;;21.72;43.75;102032.63;5012333;28;124073;-60
2022/05/27 10:06:46;;;;;;;6.93;1.67;;;;;;;21.80;43.41;102032.06;5006552;28;123789;-60
2022/05/27 10:09:27;;;;;;;4.53;1.65;;;;;;;21.84;43.48;102023.63;5010442;28;114563;-59
2022/05/27 10:11:57;;;;;;;7.53;1.77;;;;;;;21.89;43.30;102032.25;5010206;28;114223;-59
2022/05/27 10:14:28;;;;;;;6.53;1.65;;;;;;;21.94;43.33;102030.06;5010109;28;125242;-60
2022/05/27 10:17:10;;;;;;;5.30;1.60;;;;;;;22.07;43.42;102039.94;5010884;28;123589;-59
2022/05/27 10:19:45;;;;;;;5.30;1.58;;;;;;;22.15;42.81;102042.91;5007346;28;114234;-60
2022/05/27 10:22:23;;;;;;;5.90;1.70;;;;;;;22.11;42.07;102046.81;5012812;28;114513;-60
2022/05/27 10:25:07;;;;;;;6.68;1.50;;;;;;;21.95;41.98;102036.31;5005450;28;124014;-59
2022/05/27 10:27:50;;;;;;;4.68;1.60;;;;;;;21.89;42.39;102037.63;5007155;28;123783;-60
2022/05/27 10:30:26;;;;;;;5.35;1.67;;;;;;;21.94;42.20;102034.56;5014308;28;114602;-60
2022/05/27 10:32:54;;;;;;;6.85;1.88;;;;;;;21.99;42.29;102045.03;5008560;28;114471;-59
2022/05/27 10:35:21;;;;;;;5.72;1.75;;;;;;;21.97;41.86;102040.59;5008271;28;124769;-59
2022/05/27 10:38:26;;;;;;;5.90;1.75;;;;;;;21.85;41.46;102036.13;5011100;28;123883;-59
2022/05/27 10:41:15;;;;;;;5.85;1.60;;;;;;;21.73;41.33;102031.63;5008784;28;114089;-59
2022/05/27 10:44:03;;;;;;;4.60;1.50;;;;;;;21.65;41.77;102042.13;5010740;28;114003;-60
2022/05/27 10:46:36;;;;;;;12.75;1.90;;;;;;;21.65;41.44;102050.22;5007991;28;124007;-59
2022/05/27 10:49:21;;;;;;;5.45;1.73;;;;;;;21.62;41.19;102045.03;5008199;28;123888;-59
2022/05/27 10:52:07;;;;;;;4.67;1.70;;;;;;;21.50;41.19;102047.66;5010894;28;115326;-59
2022/05/27 10:54:41;;;;;;;7.63;1.90;;;;;;;21.45;41.07;102049.81;5007411;28;115136;-59
2022/05/27 11:03:48;;;;;;;5.45;1.60;;;;;;;21.65;41.55;102051.06;5008059;28;114942;-58
2022/05/27 11:06:35;;;;;;;6.75;1.90;;;;;;;21.68;41.35;102044.59;5009240;28;113838;-58
2022/05/27 11:09:31;;;;;;;7.75;1.98;;;;;;;21.65;41.52;102047.53;5011966;28;124032;-57
2022/05/27 11:12:17;;;;;;;9.02;2.13;;;;;;;21.70;41.53;102037.25;5004639;28;124799;-58
2022/05/27 11:15:11;;;;;;;5.63;1.80;;;;;;;21.68;41.16;102060.75;5015480;28;115009;-57
2022/05/27 11:17:53;;;;;;;9.40;1.73;;;;;;;21.58;41.16;102060.56;5013936;28;114055;-58
2022/05/27 11:20:32;;;;;;;5.82;1.70;;;;;;;21.61;41.10;102059.50;5006957;28;124867;-58
2022/05/27 11:23:24;;;;;;;7.30;1.70;;;;;;;21.69;41.43;102062.50;5011413;28;124877;-58
2022/05/27 11:26:12;;;;;;;6.72;2.20;;;;;;;21.71;40.97;102045.22;5010379;28;114555;-58
2022/05/27 11:29:03;;;;;;;6.22;1.60;;;;;;;21.78;41.13;102051.91;5010404;28;114345;-58
2022/05/27 11:31:39;;;;;;;5.40;1.70;;;;;;;21.84;40.92;102045.19;5008910;28;124029;-57
2022/05/27 11:34:27;;;;;;;5.60;1.55;;;;;;;21.84;40.65;102055.13;5007270;28;124802;-58
2022/05/27 11:37:19;;;;;;;6.63;1.55;;;;;;;21.75;40.11;102051.25;5008611;28;114718;-58
2022/05/27 11:40:22;;;;;;;5.18;1.40;;;;;;;21.77;40.38;102060.09;4991403;28;113338;-59
2022/05/27 11:43:13;;;;;;;5.25;1.70;;;;;;;21.88;40.96;102067.41;4952493;28;123802;-58
2022/05/27 11:46:08;;;;;;;6.00;1.50;;;;;;;21.94;39.90;102058.84;4990755;28;124544;-58
2022/05/27 11:48:47;;;;;;;6.40;1.70;;;;;;;21.87;40.06;102049.50;4992728;28;115350;-58
2022/05/27 11:51:20;;;;;;;6.63;1.70;;;;;;;21.89;40.27;102059.22;4995448;28;115402;-58
2022/05/27 11:54:08;;;;;;;8.18;1.80;;;;;;;22.00;40.56;102049.44;5002075;28;123141;-58
2022/05/27 11:56:52;;;;;;;4.95;1.38;;;;;;;22.10;39.89;102061.28;5011186;28;124395;-58
2022/05/27 11:59:25;;;;;;;6.55;1.80;;;;;;;22.15;39.38;102059.09;5006717;28;114849;-58
2022/05/27 12:02:20;;;;;;;8.25;2.17;;;;;;;22.21;39.37;102057.78;5012645;28;114372;-58
2022/05/27 12:05:02;;;;;;;5.95;1.65;;;;;;;22.28;39.70;102049.16;5002861;28;124781;-58
2022/05/27 12:07:38;;;;;;;5.85;1.77;;;;;;;22.37;39.07;102052.13;5010980;28;124262;-58
2022/05/27 12:10:26;;;;;;;7.63;1.40;;;;;;;22.42;38.68;102053.50;5012645;28;115573;-57
2022/05/27 12:13:05;;;;;;;7.15;1.45;;;;;;;22.49;38.47;102051.16;5012072;28;114008;-57
2022/05/27 12:15:46;;;;;;;5.20;1.40;;;;;;;22.54;38.37;102043.59;5009567;28;123860;-57
2022/05/27 12:18:23;;;;;;;4.75;1.60;;;;;;;22.60;38.15;102045.81;5013705;28;126264;-58